Time;durP1;ratioP1;P1;durP2;ratioP2;P2;SDS_P1;SDS_P2;PMS_P1;PMS_P2;Temp;Humidity;BMP_temperature;BMP_pressure;BME280_temperature;BME280_humidity;BME280_pressure;Samples;Min_cycle;Max_cycle;Signal;HPM_P1;HPM_P2
2022/07/25 00:00:11;;;;;;;8.63;7.47;;;;;;;19.70;94.57;100384.69;691737;28;1226;-44
2022/07/25 00:00:31;;;;;;;8.20;7.40;;;;;;;19.70;94.97;100392.63;690816;28;1177;-45
2022/07/25 00:00:52;;;;;;;8.43;7.53;;;;;;;19.69;95.39;100387.41;690816;28;1300;-43
2022/07/25 00:01:12;;;;;;;8.25;7.40;;;;;;;19.70;94.67;100387.34;691322;28;4341;-45
2022/07/25 00:01:32;;;;;;;9.03;7.57;;;;;;;19.71;94.28;100389.03;690564;28;888;-44
2022/07/25 00:01:53;;;;;;;8.52;7.55;;;;;;;19.71;94.46;100386.38;689416;28;1127;-44
2022/07/25 00:02:14;;;;;;;8.80;7.90;;;;;;;19.71;94.06;100390.84;687698;28;1071;-44
2022/07/25 00:02:35;;;;;;;8.52;7.28;;;;;;;19.68;93.34;100389.19;687516;28;1260;-44
2022/07/25 00:02:56;;;;;;;8.83;7.07;;;;;;;19.66;93.22;100388.41;688436;28;1227;-45
2022/07/25 00:03:16;;;;;;;8.80;7.30;;;;;;;19.63;93.94;100385.03;686945;28;1160;-44
2022/07/25 00:03:37;;;;;;;8.43;7.53;;;;;;;19.65;95.20;100386.69;687506;28;1047;-45
2022/07/25 00:03:57;;;;;;;8.80;7.47;;;;;;;19.65;94.35;100389.34;687213;28;1214;-44
2022/07/25 00:04:17;;;;;;;9.83;7.80;;;;;;;19.65;95.59;100397.28;687077;28;4565;-44
2022/07/25 00:04:38;;;;;;;9.48;7.50;;;;;;;19.64;94.94;100394.72;688164;28;1215;-45
2022/07/25 00:04:58;;;;;;;8.63;7.17;;;;;;;19.65;94.13;100389.34;687591;28;1279;-44
2022/07/25 00:05:18;;;;;;;8.40;7.27;;;;;;;19.65;93.32;100383.19;688042;28;1063;-44
2022/07/25 00:05:39;;;;;;;8.18;7.38;;;;;;;19.65;94.43;100392.00;688122;28;1205;-43
2022/07/25 00:05:59;;;;;;;8.30;7.50;;;;;;;19.65;94.14;100386.69;691882;28;1434;-44
2022/07/25 00:06:19;;;;;;;8.27;7.25;;;;;;;19.66;93.78;100393.72;690542;28;1189;-43
2022/07/25 00:06:41;;;;;;;8.50;7.50;;;;;;;19.67;94.90;100390.09;691608;28;1246;-44
2022/07/25 00:07:01;;;;;;;8.55;7.32;;;;;;;19.62;92.63;100384.19;688532;28;1048;-43
2022/07/25 00:07:22;;;;;;;8.52;7.20;;;;;;;19.60;92.25;100382.53;686553;28;4710;-44
2022/07/25 00:07:42;;;;;;;8.10;7.20;;;;;;;19.59;92.84;100381.66;689200;28;1198;-44
2022/07/25 00:08:03;;;;;;;9.23;7.50;;;;;;;19.59;93.25;100380.81;688699;28;1366;-44
2022/07/25 00:08:23;;;;;;;10.43;7.60;;;;;;;19.56;94.31;100384.47;688398;28;1320;-43
2022/07/25 00:08:43;;;;;;;9.23;7.43;;;;;;;19.58;93.92;100377.31;689324;28;1432;-43
2022/07/25 00:09:04;;;;;;;7.93;7.13;;;;;;;19.59;93.35;100386.97;690832;28;1242;-45
2022/07/25 00:09:24;;;;;;;8.40;7.38;;;;;;;19.58;92.90;100379.97;688528;28;1413;-44
2022/07/25 00:09:44;;;;;;;8.13;7.23;;;;;;;19.59;94.13;100381.66;688170;28;1199;-44
2022/07/25 00:10:06;;;;;;;8.20;7.40;;;;;;;19.55;93.72;100380.09;686783;28;4535;-44
2022/07/25 00:10:26;;;;;;;8.57;7.38;;;;;;;19.52;93.25;100380.22;686635;28;1381;-45
2022/07/25 00:10:47;;;;;;;7.87;7.07;;;;;;;19.51;93.08;100375.88;686014;28;1346;-45
2022/07/25 00:11:07;;;;;;;7.90;6.83;;;;;;;19.53;92.58;100379.31;687055;28;1469;-44
2022/07/25 00:11:27;;;;;;;8.93;7.13;;;;;;;19.55;93.37;100385.41;689209;28;1334;-44
2022/07/25 00:11:48;;;;;;;8.20;7.30;;;;;;;19.55;94.92;100377.47;688775;28;1503;-43
2022/07/25 00:12:08;;;;;;;8.65;7.78;;;;;;;19.55;94.71;100380.09;688978;28;986;-43
2022/07/25 00:12:28;;;;;;;8.40;7.50;;;;;;;19.55;94.97;100375.66;687783;28;1119;-44
2022/07/25 00:12:49;;;;;;;8.70;7.53;;;;;;;19.54;94.98;100375.72;688664;28;1223;-45
2022/07/25 00:13:10;;;;;;;8.98;7.43;;;;;;;19.51;95.36;100370.56;688564;28;4327;-45
2022/07/25 00:13:30;;;;;;;9.13;7.88;;;;;;;19.53;96.09;100376.66;689641;28;1247;-44
2022/07/25 00:13:50;;;;;;;8.97;7.50;;;;;;;19.52;96.12;100372.28;690266;28;1190;-43
2022/07/25 00:14:11;;;;;;;8.30;7.50;;;;;;;19.49;95.88;100373.28;689900;28;1221;-44
2022/07/25 00:14:31;;;;;;;8.30;7.40;;;;;;;19.47;95.56;100372.50;688539;28;1222;-44
2022/07/25 00:14:52;;;;;;;8.00;7.15;;;;;;;19.49;95.50;100375.06;688497;28;1322;-43
2022/07/25 00:15:13;;;;;;;8.00;7.07;;;;;;;19.49;95.30;100365.31;688170;28;1087;-44
2022/07/25 00:15:33;;;;;;;8.88;7.45;;;;;;;19.52;96.50;100380.22;687522;28;1265;-44
2022/07/25 00:15:53;;;;;;;8.60;7.70;;;;;;;19.54;94.42;100365.13;688505;28;1271;-44
2022/07/25 00:16:13;;;;;;;8.87;7.00;;;;;;;19.54;93.80;100371.28;687438;28;5289;-44
2022/07/25 00:16:34;;;;;;;8.63;6.87;;;;;;;19.58;93.09;100374.66;688522;28;1440;-43
2022/07/25 00:16:54;;;;;;;7.73;6.93;;;;;;;19.56;92.48;100364.13;688853;28;1219;-44
2022/07/25 00:17:15;;;;;;;8.60;7.05;;;;;;;19.58;92.11;100369.34;687989;28;1249;-44
2022/07/25 00:17:35;;;;;;;10.03;7.40;;;;;;;19.60;92.85;100369.28;688257;28;1383;-44
2022/07/25 00:17:56;;;;;;;9.23;7.35;;;;;;;19.59;92.34;100371.03;686577;28;1212;-44
2022/07/25 00:18:16;;;;;;;7.63;6.87;;;;;;;19.56;91.89;100366.78;680279;28;1140;-44
2022/07/25 00:18:37;;;;;;;8.55;6.93;;;;;;;19.55;91.60;100358.91;680781;28;1279;-43
2022/07/25 00:18:57;;;;;;;7.80;7.00;;;;;;;19.53;91.53;100366.03;680341;28;1152;-45
2022/07/25 00:19:17;;;;;;;8.10;7.30;;;;;;;19.52;91.60;100359.00;681773;28;4381;-44
2022/07/25 00:19:38;;;;;;;8.10;7.30;;;;;;;19.54;92.56;100363.31;679602;28;1299;-44
2022/07/25 00:19:59;;;;;;;8.35;7.38;;;;;;;19.54;94.40;100363.31;684084;28;1239;-44
2022/07/25 00:20:20;;;;;;;8.00;7.20;;;;;;;19.51;93.95;100359.97;685436;28;1368;-43
2022/07/25 00:20:40;;;;;;;7.78;6.97;;;;;;;19.49;93.60;100361.81;686079;28;1419;-44
2022/07/25 00:21:00;;;;;;;7.80;7.00;;;;;;;19.48;93.84;100357.44;686546;28;1334;-44
2022/07/25 00:21:21;;;;;;;8.00;7.20;;;;;;;19.47;93.67;100361.03;688229;28;1131;-44
2022/07/25 00:21:41;;;;;;;8.43;7.30;;;;;;;19.44;93.50;100359.41;690970;28;1333;-45
2022/07/25 00:22:02;;;;;;;9.00;7.32;;;;;;;19.43;92.91;100356.81;691051;28;1304;-43
2022/07/25 00:22:22;;;;;;;7.97;7.18;;;;;;;19.44;94.31;100362.03;688584;28;5487;-44
2022/07/25 00:22:43;;;;;;;8.60;7.37;;;;;;;19.46;94.44;100351.38;687360;28;1531;-43
2022/07/25 00:23:03;;;;;;;8.67;7.10;;;;;;;19.47;93.93;100348.63;687467;28;1269;-44
2022/07/25 00:23:23;;;;;;;7.80;7.00;;;;;;;19.48;94.77;100360.09;688885;28;1235;-44
2022/07/25 00:23:44;;;;;;;8.10;7.30;;;;;;;19.51;94.96;100357.31;688053;28;1322;-44
2022/07/25 00:24:05;;;;;;;7.95;7.15;;;;;;;19.52;93.65;100349.28;687807;28;1095;-44
2022/07/25 00:24:26;;;;;;;8.98;7.30;;;;;;;19.52;94.44;100353.72;689965;28;1393;-46
2022/07/25 00:24:46;;;;;;;8.63;7.53;;;;;;;19.51;94.05;100349.38;688277;28;1246;-45
2022/07/25 00:25:07;;;;;;;8.13;7.33;;;;;;;19.49;94.53;100344.13;688165;28;4294;-45
2022/07/25 00:25:27;;;;;;;8.07;7.28;;;;;;;19.48;93.58;100352.13;687990;28;1455;-44
2022/07/25 00:25:47;;;;;;;7.93;7.13;;;;;;;19.48;93.46;100344.19;688565;28;1261;-47
2022/07/25 00:26:08;;;;;;;8.23;7.37;;;;;;;19.46;93.31;100344.25;688512;28;1544;-44
2022/07/25 00:26:28;;;;;;;8.18;7.28;;;;;;;19.45;93.14;100345.19;690579;28;1326;-44
2022/07/25 00:26:48;;;;;;;8.00;7.10;;;;;;;19.44;92.97;100345.25;690894;28;1296;-44
2022/07/25 00:27:09;;;;;;;8.15;7.18;;;;;;;19.44;94.05;100342.59;690876;28;1057;-45
2022/07/25 00:27:29;;;;;;;8.47;7.57;;;;;;;19.45;95.46;100341.69;690582;28;1179;-45
2022/07/25 00:27:50;;;;;;;8.53;7.63;;;;;;;19.46;94.04;100346.91;691195;28;912;-44
2022/07/25 00:28:10;;;;;;;9.15;7.93;;;;;;;19.45;94.51;100339.88;689078;28;4496;-44
2022/07/25 00:28:31;;;;;;;8.50;7.60;;;;;;;19.47;93.43;100345.16;687663;28;1266;-44
2022/07/25 00:28:51;;;;;;;7.82;7.03;;;;;;;19.47;93.42;100351.28;687258;28;1514;-45
2022/07/25 00:29:11;;;;;;;7.93;7.13;;;;;;;19.47;92.84;100340.69;688139;28;1269;-44
2022/07/25 00:29:32;;;;;;;8.50;7.25;;;;;;;19.47;92.20;100340.69;687617;28;1373;-44
2022/07/25 00:29:52;;;;;;;8.87;7.57;;;;;;;19.49;91.64;100343.25;688596;28;1266;-44
2022/07/25 00:30:13;;;;;;;9.32;7.55;;;;;;;19.46;91.46;100341.63;687965;28;1063;-44
2022/07/25 00:30:33;;;;;;;8.37;7.17;;;;;;;19.47;91.41;100345.16;687812;28;1135;-44
2022/07/25 00:30:53;;;;;;;8.17;7.13;;;;;;;19.48;90.86;100344.19;687478;28;1122;-44
2022/07/25 00:31:14;;;;;;;8.30;7.05;;;;;;;19.51;92.65;100341.41;688277;28;4409;-44
2022/07/25 00:31:34;;;;;;;8.23;7.10;;;;;;;19.52;92.61;100341.34;689107;28;1324;-45
2022/07/25 00:31:55;;;;;;;8.20;7.25;;;;;;;19.51;91.06;100336.13;689228;28;1225;-44
2022/07/25 00:32:15;;;;;;;8.17;7.33;;;;;;;19.49;89.96;100344.13;688053;28;1092;-44
2022/07/25 00:32:35;;;;;;;8.55;7.45;;;;;;;19.48;89.38;100338.88;689688;28;1181;-43
2022/07/25 00:32:56;;;;;;;8.97;7.30;;;;;;;19.47;89.77;100335.38;688780;28;1325;-44
2022/07/25 00:33:16;;;;;;;8.43;7.10;;;;;;;19.47;89.82;100337.19;688738;28;1288;-44
2022/07/25 00:33:38;;;;;;;8.27;7.40;;;;;;;19.47;91.26;100338.03;688923;28;1271;-43
2022/07/25 00:33:59;;;;;;;7.82;7.03;;;;;;;19.48;91.81;100346.84;689280;28;1289;-46
2022/07/25 00:34:19;;;;;;;7.72;6.93;;;;;;;19.47;91.02;100339.84;687422;28;4270;-46
2022/07/25 00:34:40;;;;;;;7.70;6.90;;;;;;;19.45;91.24;100331.09;688043;28;1313;-43
2022/07/25 00:35:00;;;;;;;8.20;7.23;;;;;;;19.47;92.54;100334.53;689011;28;1282;-45
2022/07/25 00:35:20;;;;;;;7.97;6.97;;;;;;;19.46;91.02;100332.81;687923;28;1271;-44
2022/07/25 00:35:41;;;;;;;8.77;7.03;;;;;;;19.45;91.33;100336.38;688898;28;1293;-43
2022/07/25 00:36:01;;;;;;;8.35;7.13;;;;;;;19.43;91.91;100328.50;688682;28;1230;-44
2022/07/25 00:36:22;;;;;;;7.77;6.97;;;;;;;19.42;90.58;100336.53;687339;28;1958;-43
2022/07/25 00:36:42;;;;;;;8.17;7.27;;;;;;;19.40;91.24;100333.97;688810;28;1308;-44
2022/07/25 00:37:03;;;;;;;8.15;7.00;;;;;;;19.41;90.90;100333.00;688842;28;4380;-44
2022/07/25 00:37:23;;;;;;;8.30;6.90;;;;;;;19.42;90.82;100331.22;687660;28;1525;-44
2022/07/25 00:37:43;;;;;;;8.38;7.00;;;;;;;19.43;91.19;100327.66;689651;28;1349;-44
2022/07/25 00:38:04;;;;;;;8.00;7.07;;;;;;;19.46;92.36;100327.50;685269;28;1385;-45
2022/07/25 00:38:24;;;;;;;9.93;7.57;;;;;;;19.45;91.95;100329.28;685127;28;1258;-43
2022/07/25 00:38:45;;;;;;;10.03;7.40;;;;;;;19.48;91.04;100330.94;686038;28;1406;-45
2022/07/25 00:39:05;;;;;;;9.13;7.35;;;;;;;19.50;91.44;100329.94;685849;28;1392;-45
2022/07/25 00:39:25;;;;;;;8.27;7.17;;;;;;;19.50;91.93;100329.09;685267;28;1452;-46
2022/07/25 00:39:46;;;;;;;8.00;7.20;;;;;;;19.48;91.43;100323.84;685695;28;1337;-45
2022/07/25 00:40:07;;;;;;;8.63;7.00;;;;;;;19.49;92.15;100332.66;688257;28;4434;-46
2022/07/25 00:40:27;;;;;;;9.90;7.10;;;;;;;19.49;92.47;100328.19;688773;28;1405;-43
2022/07/25 00:40:47;;;;;;;9.23;6.93;;;;;;;19.49;91.43;100324.72;690233;28;1503;-45
2022/07/25 00:41:08;;;;;;;8.48;6.80;;;;;;;19.47;90.61;100326.59;690623;28;1519;-45
2022/07/25 00:41:28;;;;;;;7.63;6.83;;;;;;;19.46;89.99;100322.22;690399;28;1305;-45
2022/07/25 00:41:49;;;;;;;7.70;6.90;;;;;;;19.46;90.06;100332.81;689551;28;4854;-44
2022/07/25 00:42:09;;;;;;;7.30;6.50;;;;;;;19.43;89.77;100325.84;689107;28;1091;-44
2022/07/25 00:42:29;;;;;;;7.67;6.87;;;;;;;19.43;89.45;100325.00;689382;28;1360;-44
2022/07/25 00:42:50;;;;;;;8.50;6.85;;;;;;;19.44;90.21;100330.22;687791;28;1770;-44
2022/07/25 00:43:10;;;;;;;7.97;7.17;;;;;;;19.45;91.07;100331.94;687347;28;4523;-46
2022/07/25 00:43:31;;;;;;;8.75;7.32;;;;;;;19.48;90.01;100322.97;688751;28;1242;-44
2022/07/25 00:43:51;;;;;;;8.53;7.00;;;;;;;19.48;90.45;100325.63;688364;28;1337;-46
2022/07/25 00:44:44;;;;;;;7.95;7.15;;;;;;;19.49;89.17;100322.06;688874;28;1000;-44
2022/07/25 00:45:05;;;;;;;8.50;6.78;;;;;;;19.49;88.64;100322.06;690748;28;1440;-44
2022/07/25 00:45:25;;;;;;;8.55;7.32;;;;;;;19.50;89.58;100323.78;690810;28;1282;-44
2022/07/25 00:45:46;;;;;;;8.02;7.07;;;;;;;19.53;88.98;100319.19;691384;28;1333;-44
2022/07/25 00:46:06;;;;;;;8.80;6.83;;;;;;;19.52;87.00;100322.78;689229;28;4435;-43
2022/07/25 00:46:27;;;;;;;9.80;7.10;;;;;;;19.53;88.30;100324.47;687906;28;1280;-44
2022/07/25 00:46:47;;;;;;;8.80;7.10;;;;;;;19.56;88.36;100320.81;688543;28;1389;-47
2022/07/25 00:47:07;;;;;;;8.82;7.18;;;;;;;19.58;87.58;100324.28;690430;28;816;-43
2022/07/25 00:47:28;;;;;;;8.67;7.07;;;;;;;19.60;87.93;100319.75;689591;28;1484;-43
2022/07/25 00:47:48;;;;;;;8.83;7.10;;;;;;;19.60;87.53;100322.41;688319;28;1431;-44
2022/07/25 00:48:08;;;;;;;8.35;7.10;;;;;;;19.62;86.47;100322.31;688527;28;927;-44
2022/07/25 00:48:29;;;;;;;8.17;6.97;;;;;;;19.61;87.60;100317.97;689271;28;1181;-44
2022/07/25 00:48:49;;;;;;;8.18;7.20;;;;;;;19.60;86.90;100322.41;688142;28;1250;-45
2022/07/25 00:49:10;;;;;;;9.40;7.07;;;;;;;19.61;86.12;100325.94;688872;28;4671;-47
2022/07/25 00:49:30;;;;;;;9.53;7.27;;;;;;;19.60;86.03;100324.19;688031;28;1238;-47
2022/07/25 00:49:50;;;;;;;8.38;6.90;;;;;;;19.60;85.52;100317.09;687850;28;1207;-44
2022/07/25 00:50:11;;;;;;;8.10;6.90;;;;;;;19.61;85.63;100320.63;688257;28;987;-44
2022/07/25 00:50:31;;;;;;;7.50;6.75;;;;;;;19.60;85.55;100317.09;689260;28;1341;-44
2022/07/25 00:50:51;;;;;;;8.20;7.20;;;;;;;19.61;85.41;100321.47;689102;28;1088;-44
2022/07/25 00:51:12;;;;;;;9.47;7.23;;;;;;;19.60;85.32;100311.78;688883;28;935;-44
2022/07/25 00:51:32;;;;;;;8.87;6.97;;;;;;;19.62;87.30;100312.59;684665;28;958;-44
2022/07/25 00:51:53;;;;;;;8.03;6.80;;;;;;;19.63;89.48;100318.75;685165;28;1174;-45
2022/07/25 00:52:14;;;;;;;7.82;7.03;;;;;;;19.65;88.04;100317.75;686379;28;4228;-44
2022/07/25 00:52:35;;;;;;;8.43;6.90;;;;;;;19.66;87.62;100315.94;682264;28;1096;-44
2022/07/25 00:52:55;;;;;;;8.02;7.00;;;;;;;19.66;87.49;100316.81;680752;28;1085;-45
2022/07/25 00:53:16;;;;;;;8.47;7.03;;;;;;;19.67;87.79;100315.84;680328;28;1141;-43
2022/07/25 00:53:38;;;;;;;8.20;7.22;;;;;;;19.67;87.62;100315.84;686323;28;1122;-46
2022/07/25 00:53:59;;;;;;;8.60;7.13;;;;;;;19.67;86.78;100315.84;684416;28;1256;-44
2022/07/25 00:54:19;;;;;;;7.75;6.80;;;;;;;19.67;87.23;100315.84;685496;28;1205;-44
2022/07/25 00:54:40;;;;;;;7.13;6.40;;;;;;;19.67;86.57;100321.16;687840;28;1357;-44
2022/07/25 00:55:01;;;;;;;7.30;6.55;;;;;;;19.67;86.58;100315.00;690348;28;1397;-44
2022/07/25 00:55:22;;;;;;;7.57;6.83;;;;;;;19.69;88.04;100314.00;690258;28;4463;-44
2022/07/25 00:55:43;;;;;;;8.50;6.97;;;;;;;19.69;87.09;100314.00;689753;28;1095;-44
2022/07/25 00:56:05;;;;;;;8.30;6.90;;;;;;;19.70;86.81;100317.50;690374;28;1497;-43
2022/07/25 00:56:25;;;;;;;7.60;6.80;;;;;;;19.71;87.23;100317.44;687608;28;1912;-45
2022/07/25 00:56:47;;;;;;;8.93;6.70;;;;;;;19.72;86.00;100318.31;687974;28;1123;-44
2022/07/25 00:57:07;;;;;;;7.38;6.50;;;;;;;19.71;84.91;100316.59;688264;28;1480;-43
2022/07/25 00:57:27;;;;;;;7.40;6.67;;;;;;;19.71;85.60;100311.28;689408;28;1495;-44
2022/07/25 00:57:48;;;;;;;8.80;6.80;;;;;;;19.71;85.37;100316.59;687866;28;1274;-44
2022/07/25 00:58:08;;;;;;;7.67;6.87;;;;;;;19.72;86.07;100318.31;684379;28;4530;-45
2022/07/25 00:58:29;;;;;;;7.97;6.72;;;;;;;19.73;85.01;100318.22;685449;28;1130;-45
2022/07/25 00:58:49;;;;;;;8.27;6.80;;;;;;;19.74;85.54;100314.66;686018;28;1317;-44
2022/07/25 00:59:10;;;;;;;9.52;7.18;;;;;;;19.74;85.37;100322.63;685810;28;954;-45
2022/07/25 00:59:30;;;;;;;9.18;7.05;;;;;;;19.76;84.87;100316.34;689527;28;1080;-44
2022/07/25 00:59:51;;;;;;;8.40;6.90;;;;;;;19.76;84.65;100319.00;687244;28;1206;-44
2022/07/25 01:00:13;;;;;;;8.23;6.97;;;;;;;19.75;84.83;100318.16;688566;28;1128;-44
2022/07/25 01:00:33;;;;;;;8.43;6.78;;;;;;;19.77;85.24;100323.38;684490;28;1503;-44
2022/07/25 01:00:54;;;;;;;8.10;6.47;;;;;;;19.78;85.81;100322.44;687648;28;997;-43
2022/07/25 01:01:15;;;;;;;8.13;6.80;;;;;;;19.76;88.80;100321.66;687053;28;4219;-43
2022/07/25 01:01:36;;;;;;;8.07;7.10;;;;;;;19.75;86.62;100318.16;687424;28;1064;-43
2022/07/25 01:01:57;;;;;;;7.85;6.80;;;;;;;19.77;88.33;100318.06;688080;28;1186;-45
2022/07/25 01:02:17;;;;;;;8.88;6.65;;;;;;;19.74;87.11;100312.00;688545;28;1087;-44
2022/07/25 01:02:38;;;;;;;8.53;7.10;;;;;;;19.76;87.27;100321.66;686863;28;1104;-44
2022/07/25 01:02:58;;;;;;;8.07;6.90;;;;;;;19.77;86.84;100320.72;689270;28;1278;-44
2022/07/25 01:03:19;;;;;;;7.37;6.63;;;;;;;19.77;86.80;100315.41;688634;28;1062;-43
2022/07/25 01:03:39;;;;;;;7.60;6.80;;;;;;;19.77;85.51;100310.13;688166;28;1368;-44
2022/07/25 01:04:00;;;;;;;7.67;6.87;;;;;;;19.77;85.44;100307.47;688751;28;1234;-44
2022/07/25 01:04:20;;;;;;;7.70;6.70;;;;;;;19.78;85.69;100322.44;685414;28;4668;-45
2022/07/25 01:04:41;;;;;;;8.23;7.10;;;;;;;19.79;86.05;100319.72;688408;28;1159;-44
2022/07/25 01:05:04;;;;;;;8.10;6.73;;;;;;;19.78;85.97;100314.50;687925;28;1036;-44
2022/07/25 01:05:24;;;;;;;8.35;6.55;;;;;;;19.78;86.11;100318.00;688236;28;1287;-44
2022/07/25 01:05:45;;;;;;;8.30;6.90;;;;;;;19.76;85.02;100322.53;688650;28;1123;-45
2022/07/25 01:06:06;;;;;;;7.57;6.55;;;;;;;19.77;85.24;100313.66;684298;28;1262;-44
2022/07/25 01:06:26;;;;;;;8.02;6.80;;;;;;;19.78;85.70;100325.09;685666;28;1212;-45
2022/07/25 01:06:47;;;;;;;8.93;7.30;;;;;;;19.75;85.04;100323.47;681536;28;1449;-44
2022/07/25 01:07:07;;;;;;;9.33;7.07;;;;;;;19.76;88.47;100313.69;680571;28;4729;-43
2022/07/25 01:07:29;;;;;;;7.90;7.10;;;;;;;19.74;86.19;100317.31;682285;28;1228;-45
2022/07/25 01:07:50;;;;;;;7.97;7.15;;;;;;;19.74;87.10;100311.13;682477;28;1239;-44
2022/07/25 01:08:11;;;;;;;8.32;7.38;;;;;;;19.74;87.62;100319.09;683342;28;1156;-43
2022/07/25 01:08:32;;;;;;;8.40;7.47;;;;;;;19.72;88.06;100319.16;685592;28;1028;-44
2022/07/25 01:08:53;;;;;;;8.00;7.07;;;;;;;19.71;87.09;100317.44;689624;28;1250;-44
2022/07/25 01:09:15;;;;;;;7.82;7.03;;;;;;;19.71;87.57;100320.09;687214;28;1104;-44
2022/07/25 01:09:38;;;;;;;7.78;6.95;;;;;;;19.71;86.80;100322.75;687816;28;1333;-43
2022/07/25 01:09:59;;;;;;;8.18;6.82;;;;;;;19.72;85.81;100321.81;689046;28;1266;-45
2022/07/25 01:10:19;;;;;;;8.02;7.20;;;;;;;19.71;85.08;100322.75;687179;28;4505;-45
2022/07/25 01:10:39;;;;;;;7.93;6.93;;;;;;;19.70;86.31;100315.75;688464;28;1286;-44
2022/07/25 01:11:00;;;;;;;8.10;7.00;;;;;;;19.71;85.59;100317.44;688633;28;1242;-44
2022/07/25 01:11:21;;;;;;;7.63;6.70;;;;;;;19.69;85.50;100321.97;688525;28;1271;-43
2022/07/25 01:11:42;;;;;;;7.85;7.00;;;;;;;19.69;84.99;100316.66;686608;28;1203;-43
2022/07/25 01:12:02;;;;;;;7.67;6.90;;;;;;;19.67;85.51;100321.16;690383;28;1444;-45
2022/07/25 01:12:23;;;;;;;7.35;6.65;;;;;;;19.67;86.01;100320.31;691449;28;1198;-44
2022/07/25 01:12:47;;;;;;;7.80;6.60;;;;;;;19.67;86.60;100321.16;691337;28;1237;-45
2022/07/25 01:13:07;;;;;;;7.85;7.05;;;;;;;19.68;85.94;100319.38;690408;28;4517;-44
2022/07/25 01:13:31;;;;;;;8.90;7.20;;;;;;;19.66;85.36;100319.47;690309;28;1368;-43
2022/07/25 01:13:52;;;;;;;7.90;7.10;;;;;;;19.66;85.46;100315.94;688964;28;1155;-44
2022/07/25 01:14:12;;;;;;;7.47;6.78;;;;;;;19.65;86.10;100315.09;688674;28;1016;-44
2022/07/25 01:14:33;;;;;;;8.00;7.17;;;;;;;19.65;86.66;100316.91;688507;28;1356;-44
2022/07/25 01:14:53;;;;;;;8.67;7.53;;;;;;;19.66;88.91;100311.50;689690;28;1285;-45
2022/07/25 01:15:15;;;;;;;8.82;7.25;;;;;;;19.67;89.48;100313.22;688674;28;1096;-46
2022/07/25 01:15:36;;;;;;;7.95;7.00;;;;;;;19.66;88.77;100313.28;689229;28;3684;-45
2022/07/25 01:15:56;;;;;;;8.45;6.85;;;;;;;19.63;89.69;100314.28;689026;28;1349;-44
2022/07/25 01:16:17;;;;;;;8.43;7.20;;;;;;;19.60;88.34;100313.59;687621;28;4502;-44
2022/07/25 01:16:40;;;;;;;8.02;6.95;;;;;;;19.60;87.33;100314.44;689186;28;1235;-43
2022/07/25 01:17:00;;;;;;;8.00;7.00;;;;;;;19.61;86.81;100310.03;688174;28;1273;-44
2022/07/25 01:17:20;;;;;;;7.83;6.77;;;;;;;19.63;86.30;100316.94;688284;28;1219;-44
2022/07/25 01:17:40;;;;;;;7.90;7.10;;;;;;;19.63;86.69;100308.13;689476;28;1207;-44
2022/07/25 01:18:01;;;;;;;8.43;7.03;;;;;;;19.60;86.82;100309.16;689842;28;1219;-44
2022/07/25 01:18:22;;;;;;;8.13;6.80;;;;;;;19.57;86.90;100311.94;687259;28;1090;-44
2022/07/25 01:18:43;;;;;;;9.00;7.30;;;;;;;19.56;87.62;100307.56;688328;28;1235;-45
2022/07/25 01:19:03;;;;;;;7.80;7.00;;;;;;;19.57;88.18;100307.50;687209;28;4311;-44
2022/07/25 01:19:23;;;;;;;7.60;6.80;;;;;;;19.56;87.79;100310.22;685960;28;1421;-44
2022/07/25 01:19:45;;;;;;;8.30;7.40;;;;;;;19.56;88.36;100312.88;686436;28;1421;-44
2022/07/25 01:20:13;;;;;;;7.88;7.07;;;;;;;19.55;89.42;100313.81;684360;28;1913;-44
2022/07/25 01:20:33;;;;;;;8.35;7.47;;;;;;;19.57;88.25;100310.13;682326;28;1140;-44
2022/07/25 01:20:54;;;;;;;8.30;7.20;;;;;;;19.54;87.13;100305.00;686792;28;923;-46
2022/07/25 01:21:14;;;;;;;7.40;6.70;;;;;;;19.53;86.81;100310.38;689570;28;1200;-44
2022/07/25 01:21:37;;;;;;;8.50;6.88;;;;;;;19.52;86.81;100306.88;690205;28;1423;-44
2022/07/25 01:21:58;;;;;;;7.85;7.05;;;;;;;19.54;88.09;100312.94;690190;28;1241;-45
2022/07/25 01:22:18;;;;;;;7.83;6.93;;;;;;;19.51;88.38;100312.25;689316;28;4587;-43
2022/07/25 01:22:39;;;;;;;7.88;7.00;;;;;;;19.50;89.06;100307.88;688360;28;1392;-44
2022/07/25 01:23:00;;;;;;;7.67;6.80;;;;;;;19.48;87.67;100304.44;687948;28;1333;-44
2022/07/25 01:23:20;;;;;;;8.50;7.13;;;;;;;19.48;89.83;100307.94;687855;28;1486;-44
2022/07/25 01:23:41;;;;;;;7.93;7.13;;;;;;;19.47;89.21;100305.38;688112;28;1211;-44
2022/07/25 01:24:01;;;;;;;8.20;7.40;;;;;;;19.46;88.77;100311.59;686925;28;1052;-43
2022/07/25 01:24:22;;;;;;;8.90;7.28;;;;;;;19.46;88.94;100307.16;688850;28;1299;-43
2022/07/25 01:24:42;;;;;;;8.13;7.07;;;;;;;19.45;88.20;100312.53;688019;28;1210;-43
2022/07/25 01:25:03;;;;;;;7.85;7.05;;;;;;;19.44;88.04;100309.03;684421;28;4626;-44
2022/07/25 01:25:24;;;;;;;8.05;6.97;;;;;;;19.44;89.39;100306.38;685533;28;1476;-44
2022/07/25 01:25:44;;;;;;;8.53;7.00;;;;;;;19.43;87.96;100309.09;685283;28;1111;-43
2022/07/25 01:26:05;;;;;;;7.82;7.03;;;;;;;19.39;89.64;100311.88;684775;28;1414;-44
2022/07/25 01:26:25;;;;;;;7.93;7.13;;;;;;;19.40;89.70;100307.47;685281;28;1382;-45
2022/07/25 01:26:45;;;;;;;8.38;7.35;;;;;;;19.39;88.93;100306.56;684762;28;1230;-44
2022/07/25 01:27:06;;;;;;;8.40;7.23;;;;;;;19.39;90.48;100311.03;684722;28;1401;-45
2022/07/25 01:27:26;;;;;;;8.27;7.47;;;;;;;19.37;88.36;100311.09;686351;28;1285;-44
2022/07/25 01:27:47;;;;;;;8.35;7.40;;;;;;;19.35;88.06;100307.66;685727;28;1138;-45
2022/07/25 01:28:07;;;;;;;8.45;7.05;;;;;;;19.37;88.35;100312.88;685264;28;4575;-44
2022/07/25 01:28:27;;;;;;;8.00;7.20;;;;;;;19.38;88.44;100307.53;684977;28;1216;-43
2022/07/25 01:28:51;;;;;;;8.87;7.27;;;;;;;19.39;87.98;100308.38;685797;28;1394;-44
2022/07/25 01:29:11;;;;;;;9.10;7.03;;;;;;;19.38;88.24;100309.31;684654;28;1241;-44
2022/07/25 01:29:32;;;;;;;8.10;7.13;;;;;;;19.36;90.42;100312.03;686795;28;844;-44
2022/07/25 01:29:52;;;;;;;8.82;7.50;;;;;;;19.36;89.59;100306.72;686071;28;1278;-43
2022/07/25 01:30:14;;;;;;;8.43;7.47;;;;;;;19.36;89.20;100312.03;687344;28;1082;-45
2022/07/25 01:30:35;;;;;;;8.30;7.22;;;;;;;19.34;90.19;100308.59;690034;28;1136;-44
2022/07/25 01:30:55;;;;;;;8.93;7.03;;;;;;;19.32;90.94;100307.81;691616;28;1322;-43
2022/07/25 01:31:16;;;;;;;8.93;7.50;;;;;;;19.31;90.84;100307.88;689873;28;4308;-43
2022/07/25 01:31:36;;;;;;;8.77;7.38;;;;;;;19.30;89.79;100308.81;691769;28;1282;-44
2022/07/25 01:31:57;;;;;;;8.00;7.20;;;;;;;19.29;92.57;100310.59;691374;28;1233;-45
2022/07/25 01:32:17;;;;;;;8.30;7.27;;;;;;;19.28;90.98;100308.88;688182;28;1012;-45
2022/07/25 01:32:38;;;;;;;8.20;7.40;;;;;;;19.27;90.17;100307.16;688004;28;1210;-44
2022/07/25 01:32:58;;;;;;;8.55;7.40;;;;;;;19.31;90.57;100310.53;688451;28;1360;-44
2022/07/25 01:33:20;;;;;;;7.93;7.13;;;;;;;19.32;90.81;100307.81;688325;28;1036;-44
2022/07/25 01:33:41;;;;;;;8.05;7.25;;;;;;;19.28;91.65;100308.88;685024;28;1294;-43
2022/07/25 01:34:01;;;;;;;8.23;7.23;;;;;;;19.22;90.72;100310.03;686290;28;1235;-45
2022/07/25 01:34:22;;;;;;;8.32;7.15;;;;;;;19.22;90.71;100309.19;685778;28;4185;-45
2022/07/25 01:34:42;;;;;;;8.37;7.10;;;;;;;19.20;90.25;100311.03;684978;28;1280;-44
2022/07/25 01:35:04;;;;;;;7.90;7.10;;;;;;;19.17;90.91;100305.88;688417;28;1286;-43
2022/07/25 01:35:24;;;;;;;7.90;6.75;;;;;;;19.15;90.77;100307.72;688273;28;1480;-44
2022/07/25 01:35:45;;;;;;;7.73;6.90;;;;;;;19.12;90.87;100307.88;689095;28;1163;-45
2022/07/25 01:36:06;;;;;;;8.40;7.60;;;;;;;19.10;91.74;100304.44;691889;28;1424;-43
2022/07/25 01:36:27;;;;;;;9.00;7.47;;;;;;;19.06;93.20;100303.72;691639;28;1973;-43
2022/07/25 01:36:47;;;;;;;8.60;7.70;;;;;;;19.05;94.04;100313.47;691056;28;1451;-44
2022/07/25 01:37:07;;;;;;;8.57;7.63;;;;;;;19.04;93.67;100306.44;691512;28;4445;-42
2022/07/25 01:37:28;;;;;;;8.60;7.67;;;;;;;19.07;92.75;100307.25;692308;28;1313;-45
2022/07/25 01:37:48;;;;;;;8.38;7.32;;;;;;;19.08;91.99;100312.47;691672;28;1427;-44
2022/07/25 01:38:09;;;;;;;7.90;7.10;;;;;;;19.04;92.31;100303.78;688928;28;1143;-44
2022/07/25 01:38:29;;;;;;;7.83;7.03;;;;;;;19.04;92.36;100300.28;688250;28;1162;-43
2022/07/25 01:38:49;;;;;;;7.85;7.05;;;;;;;19.05;92.06;100305.50;690032;28;1286;-44